createdAt,value
2022-09-21T00:00:40.447Z,96888.81
2022-09-21T00:03:07.214Z,96949.41
2022-09-21T00:05:34.217Z,97010.97
2022-09-21T00:08:04.596Z,97025.69
2022-09-21T00:10:31.298Z,96881.34
2022-09-21T00:12:58.138Z,96952.81
2022-09-21T00:15:24.963Z,96963.16
2022-09-21T00:17:54.932Z,96958.66
2022-09-21T00:20:21.792Z,96992.16
2022-09-21T00:22:48.517Z,96997.97
2022-09-21T00:25:15.276Z,96936.75
2022-09-21T00:27:41.966Z,96961.94
2022-09-21T00:30:09.237Z,96988.84
2022-09-21T00:32:36.787Z,96831.56
2022-09-21T00:35:03.982Z,96920.81
2022-09-21T00:37:30.561Z,97000.19
2022-09-21T00:39:57.170Z,96948.59
2022-09-21T00:42:26.343Z,96978.50
2022-09-21T00:44:52.936Z,96987.53
2022-09-21T00:47:33.339Z,97008.84
2022-09-21T00:50:00.702Z,96852.94
2022-09-21T00:52:27.293Z,96961.56
2022-09-21T00:55:00.413Z,96954.78
2022-09-21T00:57:27.805Z,96986.97
2022-09-21T00:59:55.980Z,97029.53
2022-09-21T01:02:22.779Z,96875.84
2022-09-21T01:04:49.385Z,96903.19
2022-09-21T01:07:18.523Z,97011.63
2022-09-21T01:09:47.012Z,96979.34
2022-09-21T01:12:41.505Z,97030.25
2022-09-21T01:15:40.165Z,97010.47
2022-09-21T01:18:21.270Z,96989.41
2022-09-21T01:21:04.105Z,96960.50
2022-09-21T01:23:46.001Z,97026.03
2022-09-21T01:26:15.374Z,97025.91
2022-09-21T01:29:11.978Z,97025.78
2022-09-21T01:31:44.633Z,96955.47
2022-09-21T01:34:43.058Z,96985.25
2022-09-21T01:37:12.894Z,96912.41
2022-09-21T01:39:39.474Z,96955.22
2022-09-21T01:42:06.549Z,96784.53
2022-09-21T01:44:33.673Z,96927.41
2022-09-21T01:47:01.715Z,96930.53
2022-09-21T01:49:31.781Z,96992.19
2022-09-21T01:52:01.413Z,96997.81
2022-09-21T01:54:30.749Z,96979.09
2022-09-21T01:57:32.525Z,96997.25
2022-09-21T02:00:00.095Z,96987.03
2022-09-21T02:02:44.407Z,96984.94
2022-09-21T02:05:11.440Z,96994.91
2022-09-21T02:07:38.720Z,97016.81
2022-09-21T02:10:08.277Z,96815.38
2022-09-21T02:12:34.907Z,96973.03
2022-09-21T02:15:01.804Z,96989.28
2022-09-21T02:17:41.210Z,97022.06
2022-09-21T02:20:36.604Z,96897.22
2022-09-21T02:23:12.210Z,96920.63
2022-09-21T02:25:51.292Z,97024.06
2022-09-21T02:28:20.787Z,97037.75
2022-09-21T02:30:53.701Z,97040.31
2022-09-21T02:33:24.898Z,96977.16
2022-09-21T02:35:55.693Z,97005.69
2022-09-21T02:38:26.625Z,96845.88
2022-09-21T02:40:56.749Z,96982.03
2022-09-21T02:44:00.497Z,97037.75
2022-09-21T02:46:31.967Z,97047.38
2022-09-21T02:49:15.237Z,97020.03
2022-09-21T02:51:51.362Z,96968.19
2022-09-21T02:54:20.162Z,96983.56
2022-09-21T02:56:48.842Z,96991.38
2022-09-21T02:59:16.650Z,96900.47
2022-09-21T03:01:43.348Z,96970.09
2022-09-21T03:04:10.715Z,96970.09
2022-09-21T03:06:37.274Z,96952.31
2022-09-21T03:09:03.963Z,96955.56
2022-09-21T03:11:30.612Z,97053.31
2022-09-21T03:13:57.303Z,96994.59
2022-09-21T03:16:24.650Z,97041.41
2022-09-21T03:18:51.423Z,96905.09
2022-09-21T03:21:18.197Z,97041.66
2022-09-21T03:23:44.760Z,96777.78
2022-09-21T03:26:11.339Z,96952.69
2022-09-21T03:28:37.967Z,96975.75
2022-09-21T03:31:06.021Z,97004.91
2022-09-21T03:33:32.767Z,96971.91
2022-09-21T03:35:59.485Z,96996.13
2022-09-21T03:38:26.934Z,96992.59
2022-09-21T03:40:57.859Z,96962.06
2022-09-21T03:43:24.512Z,96903.53
2022-09-21T03:45:51.310Z,96932.00
2022-09-21T03:48:17.912Z,96936.31
2022-09-21T03:50:44.556Z,96743.88
2022-09-21T03:53:18.333Z,97004.75
2022-09-21T03:55:44.970Z,97043.63
2022-09-21T03:58:11.523Z,97049.22
2022-09-21T04:00:39.229Z,97045.50
2022-09-21T04:03:05.781Z,96986.84
2022-09-21T04:05:32.506Z,97082.50
2022-09-21T04:08:02.066Z,96927.53
2022-09-21T04:10:32.845Z,97095.38
2022-09-21T04:13:01.325Z,97023.38
2022-09-21T04:15:28.115Z,97001.47
2022-09-21T04:17:54.782Z,97018.34
2022-09-21T04:20:21.483Z,97097.13
2022-09-21T04:22:48.113Z,97043.66
2022-09-21T04:25:15.037Z,97023.38
2022-09-21T04:27:41.709Z,97066.44
2022-09-21T04:30:09.107Z,97047.00
2022-09-21T04:32:35.672Z,97048.09
2022-09-21T04:35:02.213Z,97094.81
2022-09-21T04:37:28.773Z,97062.97
2022-09-21T04:39:55.931Z,97053.75
2022-09-21T04:42:23.341Z,96964.72
2022-09-21T04:44:49.929Z,96798.94
2022-09-21T04:47:16.497Z,97056.28
2022-09-21T04:49:43.097Z,97039.75
2022-09-21T04:52:09.657Z,97099.72
2022-09-21T04:54:36.221Z,97075.81
2022-09-21T04:57:02.855Z,97017.38
2022-09-21T04:59:29.423Z,97085.66
2022-09-21T05:01:56.069Z,97068.09
2022-09-21T05:04:22.619Z,97013.31
2022-09-21T05:06:49.219Z,97045.88
2022-09-21T05:09:34.878Z,96955.69
2022-09-21T05:12:03.051Z,97034.25
2022-09-21T05:14:29.768Z,97120.28
2022-09-21T05:16:56.392Z,97044.63
2022-09-21T05:19:23.811Z,97074.59
2022-09-21T05:21:50.374Z,97095.31
2022-09-21T05:24:16.989Z,96823.53
2022-09-21T05:26:43.602Z,97038.53
2022-09-21T05:29:10.391Z,96868.53
2022-09-21T05:31:48.825Z,97137.22
2022-09-21T05:34:30.169Z,97118.47
2022-09-21T05:37:21.929Z,97121.19
2022-09-21T05:39:48.734Z,97102.59
2022-09-21T05:42:15.505Z,96971.13
2022-09-21T05:44:42.453Z,97080.19
2022-09-21T05:47:20.516Z,97141.50
2022-09-21T05:50:02.434Z,97043.81
2022-09-21T05:52:39.368Z,97153.47
2022-09-21T05:55:35.191Z,97099.28
2022-09-21T05:58:18.258Z,97155.94
2022-09-21T06:01:09.377Z,97150.91
2022-09-21T06:03:36.364Z,97099.75
2022-09-21T06:06:03.079Z,97142.88
2022-09-21T06:08:29.671Z,97111.81
2022-09-21T06:10:56.398Z,97077.13
2022-09-21T06:13:22.947Z,97023.50
2022-09-21T06:15:49.552Z,96822.03
2022-09-21T06:18:18.149Z,97138.03
2022-09-21T06:20:45.248Z,97173.13
2022-09-21T06:23:12.746Z,97106.22
2022-09-21T06:25:39.385Z,97097.63
2022-09-21T06:28:07.116Z,97176.69
2022-09-21T06:30:34.823Z,97112.72
2022-09-21T06:33:01.978Z,97110.94
2022-09-21T06:35:29.099Z,97105.19
2022-09-21T06:38:02.888Z,97115.50
2022-09-21T06:40:29.711Z,97145.81
2022-09-21T06:43:00.074Z,96999.84
2022-09-21T06:45:27.185Z,97117.00
2022-09-21T06:47:53.727Z,97103.13
2022-09-21T06:50:20.329Z,97152.31
2022-09-21T06:52:46.972Z,97100.53
2022-09-21T06:55:13.766Z,97122.66
2022-09-21T06:57:40.596Z,97147.28
2022-09-21T07:00:09.190Z,97129.97
2022-09-21T07:02:35.790Z,97131.63
2022-09-21T07:05:02.469Z,97144.38
2022-09-21T07:07:32.059Z,97096.88
2022-09-21T07:10:07.422Z,97048.38
2022-09-21T07:12:35.387Z,97090.88
2022-09-21T07:15:08.161Z,97126.53
2022-09-21T07:17:38.140Z,96987.91
2022-09-21T07:20:06.890Z,97158.31
2022-09-21T07:22:33.567Z,97132.41
2022-09-21T07:25:00.188Z,97146.28
2022-09-21T07:27:27.686Z,96991.53
2022-09-21T07:29:54.227Z,97156.97
2022-09-21T07:32:21.215Z,97166.94
2022-09-21T07:34:48.399Z,97049.88
2022-09-21T07:37:15.254Z,97147.94
2022-09-21T07:39:41.893Z,96995.28
2022-09-21T07:42:08.473Z,97093.38
2022-09-21T07:44:35.065Z,97135.59
2022-09-21T07:47:03.407Z,97123.03
2022-09-21T07:49:30.064Z,97112.66
2022-09-21T07:52:01.419Z,97194.50
2022-09-21T07:54:30.377Z,97146.06
2022-09-21T07:57:15.449Z,97024.91
2022-09-21T07:59:42.029Z,97207.22
2022-09-21T08:02:08.876Z,97163.84
2022-09-21T08:04:35.662Z,97156.47
2022-09-21T08:07:02.400Z,97150.59
2022-09-21T08:09:28.986Z,97151.28
2022-09-21T08:11:56.072Z,97057.56
2022-09-21T08:14:26.255Z,96971.22
2022-09-21T08:16:53.465Z,97217.88
2022-09-21T08:19:20.616Z,97139.16
2022-09-21T08:21:56.259Z,97151.31
2022-09-21T08:24:25.583Z,97041.66
2022-09-21T08:26:52.875Z,97172.59
2022-09-21T08:29:19.700Z,97148.16
2022-09-21T08:31:46.905Z,97194.91
2022-09-21T08:34:14.462Z,97141.28
2022-09-21T08:36:41.189Z,97169.59
2022-09-21T08:39:08.396Z,97152.34
2022-09-21T08:41:53.136Z,97219.88
2022-09-21T08:44:25.022Z,97152.31
2022-09-21T08:47:13.944Z,97224.22
2022-09-21T08:49:41.268Z,97227.53
2022-09-21T08:52:16.248Z,97166.06
2022-09-21T08:54:57.129Z,97222.69
2022-09-21T08:57:29.522Z,97186.63
2022-09-21T08:59:56.209Z,97158.75
2022-09-21T09:03:00.911Z,97218.47
2022-09-21T09:05:55.480Z,97169.41
2022-09-21T09:08:21.965Z,97218.28
2022-09-21T09:10:55.428Z,97222.16
2022-09-21T09:13:43.766Z,97220.44
2022-09-21T09:16:39.629Z,97213.94
2022-09-21T09:19:18.052Z,97230.34
2022-09-21T09:21:44.642Z,97130.72
2022-09-21T09:24:15.834Z,97187.19
2022-09-21T09:26:52.836Z,97227.50
2022-09-21T09:29:26.618Z,97136.16
2022-09-21T09:31:54.854Z,97026.22
2022-09-21T09:34:28.965Z,97221.06
2022-09-21T09:37:00.480Z,97180.09
2022-09-21T09:39:29.151Z,97042.31
2022-09-21T09:42:26.648Z,97220.00
2022-09-21T09:45:05.485Z,97084.00
2022-09-21T09:47:44.534Z,97207.78
2022-09-21T09:50:13.342Z,97177.88
2022-09-21T09:52:40.339Z,97193.59
2022-09-21T09:55:21.988Z,97169.03
2022-09-21T09:57:49.134Z,97072.94
2022-09-21T10:00:17.903Z,97142.75
2022-09-21T10:02:56.438Z,97122.31
2022-09-21T10:05:24.045Z,97140.56
2022-09-21T10:07:50.824Z,97187.56
2022-09-21T10:10:29.668Z,97203.25
2022-09-21T10:13:35.070Z,97106.44
2022-09-21T10:16:12.637Z,97094.34
2022-09-21T10:18:46.361Z,97198.88
2022-09-21T10:21:27.102Z,97146.75
2022-09-21T10:24:21.816Z,97136.22
2022-09-21T10:26:50.527Z,97102.56
2022-09-21T10:29:23.048Z,97194.97
2022-09-21T10:31:56.832Z,97205.19
2022-09-21T10:34:23.433Z,97072.06
2022-09-21T10:36:52.037Z,97166.28
2022-09-21T10:39:38.804Z,97200.38
2022-09-21T10:42:16.391Z,97083.72
2022-09-21T10:44:44.834Z,97199.25
2022-09-21T10:47:40.451Z,97192.47
2022-09-21T10:50:43.807Z,97152.84
2022-09-21T10:53:10.336Z,97208.00
2022-09-21T10:55:44.082Z,97133.38
2022-09-21T10:58:19.552Z,97176.53
2022-09-21T11:00:51.869Z,97080.38
2022-09-21T11:03:30.550Z,97197.25
2022-09-21T11:05:59.947Z,97126.91
2022-09-21T11:08:41.364Z,97123.00
2022-09-21T11:11:36.465Z,97192.34
2022-09-21T11:14:21.301Z,97178.78
2022-09-21T11:16:56.790Z,97182.38
2022-09-21T11:19:33.842Z,97158.03
2022-09-21T11:22:19.071Z,97183.63
2022-09-21T11:24:52.195Z,97133.72
2022-09-21T11:27:32.218Z,97194.50
2022-09-21T11:30:03.215Z,97197.56
2022-09-21T11:33:12.020Z,97196.38
2022-09-21T11:35:58.195Z,97194.91
2022-09-21T11:38:58.588Z,97200.31
2022-09-21T11:41:44.172Z,97196.59
2022-09-21T11:44:40.937Z,97171.25
2022-09-21T11:47:36.966Z,97200.47
2022-09-21T11:50:30.520Z,97205.94
2022-09-21T11:53:54.274Z,97202.28
2022-09-21T11:56:44.242Z,97196.16
2022-09-21T11:59:26.664Z,97202.91
2022-09-21T12:01:56.131Z,97199.91
2022-09-21T12:04:31.613Z,97196.81
2022-09-21T12:07:13.753Z,97150.22
2022-09-21T12:09:47.900Z,97195.22
2022-09-21T12:12:25.547Z,97132.38
2022-09-21T12:15:11.420Z,97163.84
2022-09-21T12:17:50.253Z,97205.63
2022-09-21T12:20:35.463Z,97207.06
2022-09-21T12:23:04.704Z,97152.53
2022-09-21T12:25:37.416Z,97204.53
2022-09-21T12:28:22.910Z,97094.84
2022-09-21T12:30:53.905Z,97171.38
2022-09-21T12:33:26.450Z,97194.56
2022-09-21T12:36:14.903Z,97196.34
2022-09-21T12:38:48.817Z,97185.97
2022-09-21T12:41:55.647Z,97201.38
2022-09-21T12:44:52.269Z,97157.03
2022-09-21T12:47:31.099Z,97196.03
2022-09-21T12:50:02.589Z,97155.81
2022-09-21T12:52:29.216Z,97108.59
2022-09-21T12:54:58.598Z,97189.97
2022-09-21T12:58:14.146Z,97186.53
2022-09-21T13:00:42.729Z,97146.47
2022-09-21T13:03:38.043Z,97112.06
2022-09-21T13:06:12.454Z,97194.88
2022-09-21T13:08:41.045Z,97183.44
2022-09-21T13:11:10.548Z,97075.56
2022-09-21T13:13:44.783Z,97127.94
2022-09-21T13:16:51.474Z,97141.19
2022-09-21T13:19:23.061Z,97174.59
2022-09-21T13:22:19.830Z,97158.78
2022-09-21T13:25:15.425Z,97072.94
2022-09-21T13:28:26.727Z,97183.66
2022-09-21T13:31:13.785Z,97189.59
2022-09-21T13:34:06.481Z,97168.69
2022-09-21T13:36:35.367Z,97126.31
2022-09-21T13:39:14.105Z,97192.47
2022-09-21T13:42:01.850Z,97193.91
2022-09-21T13:44:42.013Z,97149.13
2022-09-21T13:47:09.378Z,97071.38
2022-09-21T13:49:50.869Z,97132.19
2022-09-21T13:52:17.462Z,97193.53
2022-09-21T13:54:52.674Z,97176.06
2022-09-21T13:57:19.440Z,97189.25
2022-09-21T13:59:57.375Z,97128.84
2022-09-21T14:02:30.570Z,97098.06
2022-09-21T14:04:57.318Z,97127.56
2022-09-21T14:07:24.346Z,97071.53
2022-09-21T14:09:55.379Z,97177.56
2022-09-21T14:12:25.200Z,97134.97
2022-09-21T14:15:12.583Z,97161.59
2022-09-21T14:17:42.801Z,97125.09
2022-09-21T14:20:34.644Z,97127.03
2022-09-21T14:23:19.311Z,97156.59
2022-09-21T14:25:59.141Z,96944.47
2022-09-21T14:28:35.417Z,97038.63
2022-09-21T14:31:34.735Z,97159.44
2022-09-21T14:34:03.077Z,97044.16
2022-09-21T14:36:38.374Z,97089.50
2022-09-21T14:39:05.820Z,97102.19
2022-09-21T14:41:39.214Z,97141.88
2022-09-21T14:44:05.874Z,97067.78
2022-09-21T14:46:54.775Z,97067.53
2022-09-21T14:49:40.301Z,97080.50
2022-09-21T14:52:13.458Z,97170.47
2022-09-21T14:55:35.235Z,97151.28
2022-09-21T14:58:42.921Z,97171.78
2022-09-21T15:01:20.594Z,97167.75
2022-09-21T15:03:48.302Z,97176.94
2022-09-21T15:07:02.264Z,97173.94
2022-09-21T15:09:56.532Z,97166.97
2022-09-21T15:12:51.979Z,97170.53
2022-09-21T15:15:57.465Z,97135.63
2022-09-21T15:18:25.757Z,97111.06
2022-09-21T15:21:01.563Z,97093.00
2022-09-21T15:23:30.041Z,97000.50
2022-09-21T15:26:02.700Z,97098.38
2022-09-21T15:28:57.904Z,97114.19
2022-09-21T15:31:22.231Z,97111.91
2022-09-21T15:33:48.946Z,97144.59
2022-09-21T15:36:28.896Z,97093.00
2022-09-21T15:38:59.726Z,97100.94
2022-09-21T15:41:42.575Z,97161.31
2022-09-21T15:44:15.022Z,97100.31
2022-09-21T15:46:43.249Z,97077.31
2022-09-21T15:49:15.349Z,97091.38
2022-09-21T15:51:45.246Z,97040.84
2022-09-21T15:54:22.402Z,97070.81
2022-09-21T15:56:49.072Z,97099.75
2022-09-21T15:59:20.827Z,97171.69
2022-09-21T16:01:49.338Z,97052.75
2022-09-21T16:04:23.579Z,97007.91
2022-09-21T16:07:02.982Z,97027.25
2022-09-21T16:09:37.289Z,97174.88
2022-09-21T16:12:25.916Z,97168.22
2022-09-21T16:14:57.963Z,97132.13
2022-09-21T16:17:28.659Z,96950.19
2022-09-21T16:19:55.121Z,97175.00
2022-09-21T16:23:00.127Z,97096.88
2022-09-21T16:25:30.133Z,97090.75
2022-09-21T16:27:58.371Z,97051.47
2022-09-21T16:30:53.254Z,97139.16
2022-09-21T16:33:38.016Z,97177.66
2022-09-21T16:36:33.904Z,97177.38
2022-09-21T16:39:01.188Z,97127.81
2022-09-21T16:41:40.304Z,97137.06
2022-09-21T16:44:12.974Z,97059.53
2022-09-21T16:46:43.100Z,97086.38
2022-09-21T16:49:16.845Z,97129.31
2022-09-21T16:51:43.404Z,97081.09
2022-09-21T16:54:09.998Z,97077.13
2022-09-21T16:56:36.634Z,97056.53
2022-09-21T16:59:10.546Z,97133.09
2022-09-21T17:01:37.299Z,97111.56
2022-09-21T17:04:04.325Z,97108.53
2022-09-21T17:06:30.975Z,97028.50
2022-09-21T17:08:57.704Z,97174.91
2022-09-21T17:11:24.298Z,97162.72
2022-09-21T17:13:50.997Z,97211.03
2022-09-21T17:16:18.816Z,96955.09
2022-09-21T17:18:46.099Z,97111.81
2022-09-21T17:21:12.951Z,97219.50
2022-09-21T17:23:40.160Z,97192.75
2022-09-21T17:26:17.694Z,97204.47
2022-09-21T17:28:44.509Z,97229.31
2022-09-21T17:31:16.589Z,97159.13
2022-09-21T17:33:43.661Z,97146.78
2022-09-21T17:36:13.603Z,97116.47
2022-09-21T17:38:40.503Z,97183.53
2022-09-21T17:41:09.741Z,97157.41
2022-09-21T17:43:38.242Z,97255.75
2022-09-21T17:46:16.381Z,97268.06
2022-09-21T17:48:43.183Z,97166.22
2022-09-21T17:51:10.521Z,96972.47
2022-09-21T17:53:37.503Z,97180.50
2022-09-21T17:56:13.185Z,97232.94
2022-09-21T17:58:44.897Z,97234.06
2022-09-21T18:01:14.489Z,97268.50
2022-09-21T18:03:42.623Z,97163.06
2022-09-21T18:06:10.029Z,97269.72
2022-09-21T18:08:37.843Z,96963.97
2022-09-21T18:11:36.327Z,97270.78
2022-09-21T18:14:37.874Z,97116.53
2022-09-21T18:17:59.381Z,97245.19
2022-09-21T18:20:51.616Z,97231.59
2022-09-21T18:23:39.510Z,97223.97
2022-09-21T18:26:10.235Z,97260.97
2022-09-21T18:28:40.831Z,97193.34
2022-09-21T18:31:30.098Z,97192.03
2022-09-21T18:34:02.651Z,97221.31
2022-09-21T18:36:37.275Z,97219.81
2022-09-21T18:39:15.121Z,97261.88
2022-09-21T18:41:46.969Z,97238.94
2022-09-21T18:45:00.634Z,97267.19
2022-09-21T18:47:38.733Z,97153.03
2022-09-21T18:50:31.934Z,97224.59
2022-09-21T18:53:40.502Z,97255.31
2022-09-21T18:56:11.862Z,97164.06
2022-09-21T18:58:39.504Z,97196.56
2022-09-21T19:01:06.800Z,97208.09
2022-09-21T19:03:33.936Z,97207.97
2022-09-21T19:06:00.514Z,97265.34
2022-09-21T19:08:26.985Z,97258.75
2022-09-21T19:11:38.443Z,97251.25
2022-09-21T19:14:20.575Z,97259.88
2022-09-21T19:17:00.214Z,97257.72
2022-09-21T19:19:48.703Z,97255.16
2022-09-21T19:22:21.084Z,97171.47
2022-09-21T19:24:58.433Z,97167.81
2022-09-21T19:27:33.041Z,97146.97
2022-09-21T19:30:06.341Z,97183.75
2022-09-21T19:32:38.946Z,97255.72
2022-09-21T19:35:30.528Z,97256.16
2022-09-21T19:37:58.499Z,97160.63
2022-09-21T19:40:32.577Z,97188.53
2022-09-21T19:43:05.000Z,97247.56
2022-09-21T19:45:55.835Z,97248.38
2022-09-21T19:48:23.061Z,97166.91
2022-09-21T19:50:54.830Z,97160.47
2022-09-21T19:53:40.490Z,96952.28
2022-09-21T19:56:44.154Z,97183.56
2022-09-21T19:59:29.274Z,97149.34
2022-09-21T20:01:57.944Z,97023.41
2022-09-21T20:04:47.204Z,97100.47
2022-09-21T20:07:58.160Z,97217.84
2022-09-21T20:10:42.543Z,97249.88
2022-09-21T20:13:14.923Z,97247.38
2022-09-21T20:15:48.282Z,97228.66
2022-09-21T20:18:48.929Z,97243.28
2022-09-21T20:21:18.883Z,97176.50
2022-09-21T20:23:50.072Z,97250.97
2022-09-21T20:26:23.940Z,97254.59
2022-09-21T20:28:54.285Z,97163.78
2022-09-21T20:31:25.106Z,97191.34
2022-09-21T20:33:53.763Z,97226.19
2022-09-21T20:36:20.366Z,97237.94
2022-09-21T20:38:46.975Z,97167.69
2022-09-21T20:41:15.888Z,97185.56
2022-09-21T20:43:42.550Z,97193.97
2022-09-21T20:46:10.126Z,97176.78
2022-09-21T20:48:37.637Z,97130.94
2022-09-21T20:51:07.082Z,97143.34
2022-09-21T20:53:34.153Z,97248.31
2022-09-21T20:56:03.641Z,97114.28
2022-09-21T20:58:30.599Z,97169.59
2022-09-21T21:01:03.129Z,97169.72
2022-09-21T21:03:29.756Z,97208.41
2022-09-21T21:06:08.010Z,97203.84
2022-09-21T21:08:34.559Z,96980.38
2022-09-21T21:11:01.124Z,97246.25
2022-09-21T21:13:31.057Z,97190.78
2022-09-21T21:15:57.649Z,97167.69
2022-09-21T21:18:24.289Z,97201.22
2022-09-21T21:20:52.347Z,97097.97
2022-09-21T21:23:21.070Z,97214.22
2022-09-21T21:25:48.009Z,97223.59
2022-09-21T21:28:14.717Z,97171.78
2022-09-21T21:30:41.306Z,96999.94
2022-09-21T21:33:07.863Z,97165.66
2022-09-21T21:35:37.669Z,97168.81
2022-09-21T21:38:04.289Z,97050.50
2022-09-21T21:40:30.960Z,97177.28
2022-09-21T21:42:57.616Z,97157.81
2022-09-21T21:45:24.256Z,97163.66
2022-09-21T21:47:50.951Z,97162.28
2022-09-21T21:50:17.543Z,97222.16
2022-09-21T21:52:45.238Z,97168.59
2022-09-21T21:55:11.943Z,97186.06
2022-09-21T21:57:38.535Z,97217.00
2022-09-21T22:00:06.164Z,97098.44
2022-09-21T22:02:33.005Z,97219.38
2022-09-21T22:04:59.693Z,97147.97
2022-09-21T22:07:26.279Z,97201.50
2022-09-21T22:09:55.598Z,97154.75
2022-09-21T22:12:22.192Z,97149.25
2022-09-21T22:14:49.501Z,97243.88
2022-09-21T22:17:16.122Z,97198.13
2022-09-21T22:19:42.999Z,97057.38
2022-09-21T22:22:09.565Z,97153.31
2022-09-21T22:24:36.222Z,97174.66
2022-09-21T22:27:02.856Z,97191.06
2022-09-21T22:29:29.434Z,97140.91
2022-09-21T22:31:57.154Z,97136.69
2022-09-21T22:34:23.789Z,97153.78
2022-09-21T22:36:50.745Z,97166.78
2022-09-21T22:39:17.309Z,97183.19
2022-09-21T22:41:43.880Z,97186.47
2022-09-21T22:44:10.849Z,97098.38
2022-09-21T22:46:37.642Z,97121.69
2022-09-21T22:49:04.377Z,97211.56
2022-09-21T22:51:31.043Z,97131.75
2022-09-21T22:53:57.962Z,97003.25
2022-09-21T22:56:29.324Z,97134.06
2022-09-21T22:58:58.012Z,97133.25
2022-09-21T23:01:25.840Z,97198.38
2022-09-21T23:03:57.513Z,97199.06
2022-09-21T23:06:26.748Z,97169.66
2022-09-21T23:08:54.959Z,97141.78
2022-09-21T23:11:28.364Z,97131.72
2022-09-21T23:13:55.473Z,97069.63
2022-09-21T23:16:22.684Z,97180.31
2022-09-21T23:18:49.552Z,97152.31
2022-09-21T23:21:18.511Z,97150.16
2022-09-21T23:23:45.193Z,97138.56
2022-09-21T23:26:16.608Z,97094.19
2022-09-21T23:28:44.814Z,97077.91
2022-09-21T23:31:13.161Z,97085.50
2022-09-21T23:33:44.903Z,97159.66
2022-09-21T23:36:12.737Z,96959.91
2022-09-21T23:38:39.965Z,97163.88
2022-09-21T23:41:11.450Z,97164.34
2022-09-21T23:43:38.858Z,97120.16
2022-09-21T23:46:05.768Z,97173.69
2022-09-21T23:48:32.344Z,97053.53
2022-09-21T23:50:59.222Z,97192.47
2022-09-21T23:53:26.415Z,97087.50
2022-09-21T23:55:53.127Z,97185.53
2022-09-21T23:58:19.948Z,97093.69
